createdAt,value
2019-01-10T00:02:05.946Z,0.30
2019-01-10T00:04:36.152Z,0.30
2019-01-10T00:07:13.525Z,0.30
2019-01-10T00:09:46.322Z,0.30
2019-01-10T00:12:16.765Z,0.40
2019-01-10T00:15:02.658Z,0.20
2019-01-10T00:17:33.443Z,0.30
2019-01-10T00:20:18.735Z,0.30
2019-01-10T00:22:50.695Z,0.30
2019-01-10T00:25:30.944Z,0.20
2019-01-10T00:28:13.410Z,0.10
2019-01-10T00:30:44.152Z,0.20
2019-01-10T00:33:18.255Z,0.20
2019-01-10T00:36:17.688Z,0.10
2019-01-10T00:39:08.960Z,0.10
2019-01-10T00:41:42.674Z,0.10
2019-01-10T00:47:14.808Z,0.10
2019-01-10T00:49:50.947Z,0.30
2019-01-10T00:52:35.364Z,0.20
2019-01-10T00:55:08.238Z,0.20
2019-01-10T00:58:10.036Z,0.30
2019-01-10T01:00:48.825Z,0.20
2019-01-10T01:03:25.518Z,0.40
2019-01-10T01:06:15.713Z,0.30
2019-01-10T01:08:53.680Z,0.30
2019-01-10T01:11:29.893Z,0.30
2019-01-10T01:14:11.591Z,0.40
2019-01-10T01:16:41.905Z,0.40
2019-01-10T01:19:12.153Z,0.30
2019-01-10T01:21:43.192Z,0.30
2019-01-10T01:24:18.903Z,0.30
2019-01-10T01:26:52.039Z,0.20
2019-01-10T01:29:23.622Z,0.40
2019-01-10T01:31:57.376Z,0.30
2019-01-10T01:34:32.823Z,0.40
2019-01-10T01:37:33.732Z,0.30
2019-01-10T01:43:18.063Z,0.40
2019-01-10T01:46:15.106Z,0.40
2019-01-10T01:48:50.460Z,0.40
2019-01-10T01:51:38.212Z,0.30
2019-01-10T01:54:18.865Z,0.30
2019-01-10T01:57:05.911Z,0.30
2019-01-10T01:59:38.937Z,0.20
2019-01-10T02:02:21.005Z,0.40
2019-01-10T02:05:01.449Z,0.40
2019-01-10T02:07:41.852Z,0.20
2019-01-10T02:10:18.039Z,0.20
2019-01-10T02:12:56.218Z,0.30
2019-01-10T02:15:31.331Z,0.30
2019-01-10T02:18:13.859Z,0.30
2019-01-10T02:20:45.948Z,0.30
2019-01-10T02:23:20.096Z,0.30
2019-01-10T02:26:13.306Z,0.40
2019-01-10T02:28:44.626Z,0.40
2019-01-10T02:31:15.245Z,0.30
2019-01-10T02:33:45.375Z,0.30
2019-01-10T02:36:15.596Z,0.30
2019-01-10T02:38:49.704Z,0.30
2019-01-10T02:41:21.129Z,0.40
2019-01-10T02:43:51.780Z,0.30
2019-01-10T02:46:32.883Z,0.30
2019-01-10T02:49:04.779Z,0.30
2019-01-10T02:51:44.505Z,0.30
2019-01-10T02:54:29.772Z,0.30
2019-01-10T02:57:08.183Z,0.30
2019-01-10T03:05:18.305Z,0.30
2019-01-10T03:08:02.645Z,0.20
2019-01-10T03:10:34.234Z,0.20
2019-01-10T03:13:04.907Z,0.30
2019-01-10T03:15:43.575Z,0.30
2019-01-10T03:18:17.114Z,0.30
2019-01-10T03:21:01.093Z,0.40
2019-01-10T03:23:36.488Z,0.30
2019-01-10T03:26:06.866Z,0.30
2019-01-10T03:28:40.229Z,0.30
2019-01-10T03:31:27.756Z,0.30
2019-01-10T03:33:59.794Z,0.30
2019-01-10T03:36:36.916Z,0.40
2019-01-10T03:39:20.866Z,0.20
2019-01-10T03:42:02.231Z,0.30
2019-01-10T03:44:49.094Z,0.30
2019-01-10T03:48:05.722Z,0.30
2019-01-10T03:50:56.035Z,0.30
2019-01-10T03:53:28.398Z,0.40
2019-01-10T04:00:05.142Z,0.20
2019-01-10T04:02:54.418Z,0.40
2019-01-10T04:05:28.087Z,0.40
2019-01-10T04:07:58.671Z,0.30
2019-01-10T04:10:29.085Z,0.40
2019-01-10T04:12:59.375Z,0.30
2019-01-10T04:15:30.289Z,0.30
2019-01-10T04:18:05.377Z,0.40
2019-01-10T04:21:02.941Z,0.40
2019-01-10T04:23:27.995Z,0.50
2019-01-10T04:26:02.545Z,0.30
2019-01-10T04:28:34.105Z,0.40
2019-01-10T04:31:07.340Z,0.40
2019-01-10T04:33:38.674Z,0.40
2019-01-10T04:36:32.194Z,0.30
2019-01-10T04:39:08.484Z,0.30
2019-01-10T04:47:54.302Z,0.20
2019-01-10T04:50:33.059Z,0.10
2019-01-10T04:56:31.215Z,0.30
2019-01-10T05:02:45.529Z,0.20
2019-01-10T05:06:47.239Z,0.20
2019-01-10T05:09:27.484Z,0.20
2019-01-10T05:12:20.313Z,0.30
2019-01-10T05:14:55.337Z,0.30
2019-01-10T05:17:30.275Z,0.30
2019-01-10T05:21:24.671Z,0.30
2019-01-10T05:24:05.585Z,0.20
2019-01-10T05:26:58.411Z,0.20
2019-01-10T05:30:22.649Z,0.20
2019-01-10T05:33:09.896Z,0.20
2019-01-10T05:35:50.466Z,0.10
2019-01-10T05:38:58.633Z,0.20
2019-01-10T05:41:43.815Z,0.20
2019-01-10T05:44:26.240Z,0.10
2019-01-10T05:46:51.532Z,0.20
2019-01-10T05:49:36.459Z,0.30
2019-01-10T05:52:08.920Z,0.30
2019-01-10T05:54:50.557Z,0.20
2019-01-10T05:57:20.624Z,0.20
2019-01-10T05:59:50.375Z,0.20
2019-01-10T06:02:20.342Z,0.20
2019-01-10T06:04:52.519Z,0.20
2019-01-10T06:07:22.144Z,0.30
2019-01-10T06:09:52.451Z,0.40
2019-01-10T06:12:22.376Z,0.40
2019-01-10T06:14:52.607Z,0.40
2019-01-10T06:17:22.777Z,0.30
2019-01-10T06:19:52.700Z,0.30
2019-01-10T06:22:23.118Z,0.30
2019-01-10T06:24:52.977Z,0.30
2019-01-10T06:49:56.426Z,0.40
2019-01-10T06:52:26.124Z,0.40
2019-01-10T06:54:56.920Z,0.40
2019-01-10T06:57:29.267Z,0.30
2019-01-10T06:59:59.265Z,0.40
2019-01-10T07:02:29.491Z,0.30
2019-01-10T07:04:59.516Z,0.30
2019-01-10T07:07:29.203Z,0.30
2019-01-10T07:09:59.483Z,0.30
2019-01-10T07:12:29.336Z,0.30
2019-01-10T07:14:59.973Z,0.30
2019-01-10T07:17:30.263Z,0.40
2019-01-10T07:20:00.318Z,0.30
2019-01-10T07:22:30.241Z,0.20
2019-01-10T07:25:01.463Z,0.30
2019-01-10T07:27:47.701Z,0.30
2019-01-10T07:30:20.526Z,0.20
2019-01-10T07:32:50.668Z,0.20
2019-01-10T07:36:18.949Z,0.20
2019-01-10T07:39:59.203Z,0.30
2019-01-10T07:54:05.412Z,0.30
2019-01-10T07:57:38.494Z,0.20
2019-01-10T08:04:21.345Z,0.40
2019-01-10T08:13:44.119Z,0.40
2019-01-10T08:17:15.736Z,0.50
2019-01-10T08:51:11.981Z,1.00
2019-01-10T08:54:37.649Z,0.80
2019-01-10T08:57:14.060Z,0.70
2019-01-10T09:03:29.170Z,0.70
2019-01-10T09:06:51.167Z,0.80
2019-01-10T09:09:22.581Z,0.80
2019-01-10T09:15:33.723Z,0.90
2019-01-10T09:18:54.944Z,0.80
2019-01-10T09:28:20.110Z,1.00
2019-01-10T09:31:21.862Z,1.00
2019-01-10T09:38:49.496Z,0.90
2019-01-10T09:42:19.871Z,1.00
2019-01-10T09:44:39.755Z,1.00
2019-01-10T09:47:33.625Z,1.10
2019-01-10T09:50:21.613Z,1.20
2019-01-10T10:00:12.323Z,1.20
2019-01-10T10:03:17.695Z,1.00
2019-01-10T10:06:26.938Z,1.10
2019-01-10T10:09:49.016Z,1.20
2019-01-10T10:15:24.914Z,1.10
2019-01-10T10:22:08.970Z,1.10
2019-01-10T10:24:40.516Z,1.00
2019-01-10T10:27:40.170Z,1.00
2019-01-10T10:30:21.495Z,1.10
2019-01-10T10:33:02.601Z,1.10
2019-01-10T10:35:58.100Z,0.90
2019-01-10T10:38:42.774Z,1.00
2019-01-10T10:41:16.199Z,0.90
2019-01-10T10:43:59.155Z,1.00
2019-01-10T10:47:09.684Z,0.90
2019-01-10T10:50:18.776Z,1.00
2019-01-10T10:53:19.926Z,1.00
2019-01-10T11:20:08.422Z,1.00
2019-01-10T11:23:20.390Z,1.10
2019-01-10T11:26:12.474Z,1.00
2019-01-10T11:29:13.177Z,1.00
2019-01-10T11:36:48.415Z,1.00
2019-01-10T11:39:22.891Z,1.00
2019-01-10T11:46:19.436Z,0.90
2019-01-10T11:48:44.004Z,1.00
2019-01-10T11:51:13.653Z,0.90
2019-01-10T11:53:43.315Z,1.00
2019-01-10T11:56:13.057Z,1.00
2019-01-10T11:58:42.866Z,1.10
2019-01-10T12:01:12.297Z,1.20
2019-01-10T12:03:42.182Z,1.30
2019-01-10T12:06:11.880Z,1.10
2019-01-10T12:08:45.577Z,1.00
2019-01-10T12:11:50.933Z,1.00
2019-01-10T12:14:05.753Z,1.10
2019-01-10T12:16:35.254Z,1.00
2019-01-10T12:19:04.969Z,1.00
2019-01-10T12:21:35.651Z,1.00
2019-01-10T12:24:05.388Z,1.00
2019-01-10T12:26:35.517Z,1.10
2019-01-10T12:29:05.500Z,1.10
2019-01-10T12:31:35.239Z,1.20
2019-01-10T12:34:05.298Z,1.10
2019-01-10T12:36:35.481Z,1.00
2019-01-10T12:39:12.648Z,1.00
2019-01-10T12:41:42.802Z,1.10
2019-01-10T12:44:12.668Z,1.20
2019-01-10T12:46:42.122Z,1.20
2019-01-10T12:49:12.080Z,1.20
2019-01-10T12:51:41.980Z,1.20
2019-01-10T12:54:12.180Z,1.30
2019-01-10T12:56:41.730Z,1.20
2019-01-10T12:59:11.525Z,1.10
2019-01-10T13:01:40.909Z,1.20
2019-01-10T13:04:10.618Z,1.20
2019-01-10T13:06:39.842Z,1.20
2019-01-10T13:09:10.834Z,1.30
2019-01-10T13:11:40.899Z,1.30
2019-01-10T13:14:11.123Z,1.30
2019-01-10T13:16:46.633Z,1.30
2019-01-10T13:19:13.330Z,1.20
2019-01-10T13:21:43.539Z,1.10
2019-01-10T13:24:13.345Z,1.00
2019-01-10T13:26:42.918Z,1.10
2019-01-10T13:29:12.098Z,1.10
2019-01-10T13:31:41.727Z,1.20
2019-01-10T13:34:11.358Z,1.10
2019-01-10T13:36:41.273Z,1.10
2019-01-10T13:39:11.216Z,1.00
2019-01-10T13:41:41.254Z,1.00
2019-01-10T13:44:10.580Z,1.00
2019-01-10T13:46:40.448Z,1.00
2019-01-10T13:49:10.422Z,1.10
2019-01-10T13:51:40.148Z,1.10
2019-01-10T13:54:09.751Z,1.10
2019-01-10T13:56:39.754Z,1.10
2019-01-10T13:59:09.188Z,1.00
2019-01-10T14:01:39.020Z,0.90
2019-01-10T14:04:08.516Z,0.80
2019-01-10T14:06:37.925Z,0.90
2019-01-10T14:09:12.537Z,1.00
2019-01-10T14:11:42.397Z,0.90
2019-01-10T14:14:12.427Z,0.90
2019-01-10T14:16:42.251Z,0.90
2019-01-10T14:19:11.901Z,0.90
2019-01-10T14:21:46.570Z,1.00
2019-01-10T14:24:12.659Z,1.00
2019-01-10T14:26:42.929Z,0.90
2019-01-10T14:29:12.815Z,0.70
2019-01-10T14:31:43.071Z,0.90
2019-01-10T14:34:14.248Z,0.90
2019-01-10T14:36:44.789Z,0.90
2019-01-10T14:39:14.300Z,0.80
2019-01-10T14:41:44.255Z,0.80
2019-01-10T14:44:13.872Z,0.90
2019-01-10T14:46:43.560Z,1.00
2019-01-10T14:49:13.241Z,0.90
2019-01-10T14:51:42.894Z,0.90
2019-01-10T14:54:12.794Z,0.80
2019-01-10T14:56:42.893Z,0.80
2019-01-10T14:59:12.743Z,0.70
2019-01-10T15:01:42.370Z,0.70
2019-01-10T15:04:11.858Z,0.80
2019-01-10T15:06:41.482Z,0.80
2019-01-10T15:09:11.397Z,0.80
2019-01-10T15:11:41.069Z,0.70
2019-01-10T15:14:16.058Z,0.70
2019-01-10T15:16:41.746Z,0.70
2019-01-10T15:19:11.591Z,0.70
2019-01-10T15:21:41.437Z,0.80
2019-01-10T15:24:12.326Z,0.60
2019-01-10T15:26:42.041Z,0.60
2019-01-10T15:29:11.623Z,0.50
2019-01-10T15:31:41.652Z,0.50
2019-01-10T15:34:11.435Z,0.70
2019-01-10T15:36:44.747Z,0.40
2019-01-10T15:39:14.349Z,0.60
2019-01-10T15:41:44.061Z,0.60
2019-01-10T15:44:13.639Z,0.70
2019-01-10T15:46:42.933Z,0.70
2019-01-10T15:49:12.393Z,0.70
2019-01-10T15:51:42.117Z,0.70
2019-01-10T15:54:11.735Z,0.70
2019-01-10T15:56:41.375Z,0.80
2019-01-10T15:59:11.296Z,0.70
2019-01-10T16:01:40.735Z,0.70
2019-01-10T16:04:11.744Z,0.60
2019-01-10T16:06:41.746Z,0.60
2019-01-10T16:09:11.401Z,0.60
2019-01-10T16:11:41.698Z,0.60
2019-01-10T16:14:11.320Z,0.60
2019-01-10T16:16:41.715Z,0.60
2019-01-10T16:19:11.146Z,0.50
2019-01-10T16:21:41.286Z,0.60
2019-01-10T16:24:10.971Z,0.50
2019-01-10T16:26:40.709Z,0.80
2019-01-10T16:29:10.578Z,0.90
2019-01-10T16:31:40.188Z,1.00
2019-01-10T16:34:09.615Z,1.10
2019-01-10T16:36:41.901Z,1.20
2019-01-10T16:39:11.550Z,1.10
2019-01-10T16:41:41.453Z,1.00
2019-01-10T16:44:11.452Z,1.20
2019-01-10T16:46:41.679Z,1.40
2019-01-10T16:49:11.797Z,1.30
2019-01-10T16:51:41.892Z,1.30
2019-01-10T16:54:18.262Z,1.30
2019-01-10T16:56:47.913Z,1.30
2019-01-10T16:59:17.609Z,1.20
2019-01-10T17:01:47.773Z,1.10
2019-01-10T17:04:17.813Z,1.30
2019-01-10T17:06:47.484Z,1.30
2019-01-10T17:12:48.018Z,1.50
2019-01-10T17:15:17.913Z,1.50
2019-01-10T17:17:47.936Z,1.50
2019-01-10T17:20:19.444Z,1.50
2019-01-10T17:22:49.183Z,1.40
2019-01-10T17:25:19.317Z,1.30
2019-01-10T17:27:49.915Z,1.30
2019-01-10T17:30:27.110Z,1.40
2019-01-10T17:32:57.660Z,1.20
2019-01-10T17:35:29.898Z,1.30
2019-01-10T17:37:59.884Z,1.30
2019-01-10T17:40:29.714Z,1.30
2019-01-10T17:42:59.507Z,1.20
2019-01-10T17:45:33.966Z,1.20
2019-01-10T17:48:04.283Z,1.40
2019-01-10T17:50:33.734Z,1.40
2019-01-10T17:53:03.782Z,1.30
2019-01-10T17:55:33.381Z,1.20
2019-01-10T17:58:02.845Z,1.20
2019-01-10T18:00:32.683Z,1.30
2019-01-10T18:03:06.187Z,1.20
2019-01-10T18:05:35.978Z,1.30
2019-01-10T18:08:06.803Z,1.30
2019-01-10T18:26:27.984Z,1.20
2019-01-10T18:29:07.249Z,1.30
2019-01-10T18:31:41.986Z,1.40
2019-01-10T18:34:18.145Z,1.30
2019-01-10T18:37:08.514Z,1.40
2019-01-10T18:39:38.835Z,1.30
2019-01-10T18:42:12.609Z,1.40
2019-01-10T18:44:44.928Z,1.30
2019-01-10T18:50:17.906Z,1.30
2019-01-10T18:52:52.668Z,1.30
2019-01-10T18:55:30.851Z,1.20
2019-01-10T18:58:03.728Z,1.20
2019-01-10T19:00:35.096Z,1.30
2019-01-10T19:03:18.334Z,1.40
2019-01-10T19:06:01.802Z,1.40
2019-01-10T19:08:40.705Z,1.30
2019-01-10T19:11:19.287Z,1.40
2019-01-10T19:13:57.350Z,1.40
2019-01-10T19:16:29.483Z,1.40
2019-01-10T19:19:02.727Z,1.50
2019-01-10T19:24:41.137Z,1.40
2019-01-10T19:27:14.421Z,1.40
2019-01-10T19:30:11.555Z,1.40
2019-01-10T19:32:47.242Z,1.50
2019-01-10T19:35:19.929Z,1.50
2019-01-10T19:37:57.336Z,1.40
2019-01-10T19:40:39.489Z,1.50
2019-01-10T19:43:16.090Z,1.50
2019-01-10T19:45:49.751Z,1.40
2019-01-10T19:48:29.615Z,1.30
2019-01-10T19:51:01.608Z,1.30
2019-01-10T19:56:44.896Z,1.20
2019-01-10T19:59:56.251Z,1.20
2019-01-10T20:02:48.004Z,1.20
2019-01-10T20:05:28.955Z,1.10
2019-01-10T20:08:19.467Z,1.10
2019-01-10T20:11:03.346Z,1.20
2019-01-10T20:13:38.674Z,1.30
2019-01-10T20:16:15.962Z,1.20
2019-01-10T20:21:54.053Z,1.20
2019-01-10T20:24:59.086Z,1.20
2019-01-10T20:27:37.227Z,1.30
2019-01-10T20:30:48.584Z,1.30
2019-01-10T20:33:27.091Z,1.20
2019-01-10T20:35:56.519Z,1.30
2019-01-10T20:38:37.971Z,1.20
2019-01-10T20:41:08.457Z,1.20
2019-01-10T20:43:38.963Z,1.20
2019-01-10T20:46:12.368Z,1.20
2019-01-10T20:48:42.313Z,1.30
2019-01-10T20:51:12.681Z,1.20
2019-01-10T20:53:45.814Z,1.20
2019-01-10T20:56:16.685Z,1.30
2019-01-10T20:58:57.458Z,1.20
2019-01-10T21:01:30.536Z,1.20
2019-01-10T21:04:01.824Z,1.20
2019-01-10T21:06:32.185Z,1.20
2019-01-10T21:09:02.459Z,1.20
2019-01-10T21:11:40.719Z,1.10
2019-01-10T21:14:10.782Z,1.10
2019-01-10T21:16:51.528Z,1.10
2019-01-10T21:19:22.075Z,1.10
2019-01-10T21:21:54.453Z,1.10
2019-01-10T21:24:27.708Z,1.10
2019-01-10T21:26:58.390Z,1.00
2019-01-10T21:29:39.692Z,1.10
2019-01-10T21:32:15.423Z,1.10
2019-01-10T21:58:11.498Z,1.20
2019-01-10T22:00:42.140Z,1.10
2019-01-10T22:03:12.860Z,1.10
2019-01-10T22:05:44.047Z,1.10
2019-01-10T22:08:14.458Z,1.10
2019-01-10T22:10:44.094Z,1.10
2019-01-10T22:13:16.678Z,1.00
2019-01-10T22:15:46.957Z,0.90
2019-01-10T22:18:23.908Z,1.00
2019-01-10T22:20:57.793Z,1.00
2019-01-10T22:24:00.301Z,1.00
2019-01-10T22:26:08.246Z,0.80
2019-01-10T22:28:56.747Z,0.80
2019-01-10T22:31:33.046Z,0.80
2019-01-10T22:34:03.317Z,0.90
2019-01-10T22:40:44.497Z,0.90
2019-01-10T22:43:37.962Z,0.80
2019-01-10T22:47:00.932Z,0.90
2019-01-10T22:49:51.341Z,0.90
2019-01-10T22:52:50.896Z,0.80
2019-01-10T22:55:22.550Z,0.90
2019-01-10T22:58:09.793Z,0.90
2019-01-10T23:01:21.645Z,0.80
2019-01-10T23:04:11.128Z,0.70
2019-01-10T23:07:01.529Z,0.50
2019-01-10T23:09:42.169Z,0.60
2019-01-10T23:12:22.455Z,0.60
2019-01-10T23:15:25.369Z,0.70
2019-01-10T23:18:04.713Z,0.70
2019-01-10T23:23:30.081Z,0.80
2019-01-10T23:26:21.047Z,0.70
2019-01-10T23:29:33.302Z,0.70
2019-01-10T23:32:27.625Z,0.60
2019-01-10T23:35:07.848Z,0.50
2019-01-10T23:38:01.761Z,0.50
2019-01-10T23:40:47.774Z,0.60
2019-01-10T23:43:27.326Z,0.60
2019-01-10T23:46:10.721Z,0.50
2019-01-10T23:52:10.783Z,0.40
2019-01-10T23:54:42.952Z,0.40
